createdAt,value
2022-10-17T00:00:59.166Z,101962.91
2022-10-17T00:04:02.055Z,101964.44
2022-10-17T00:07:05.006Z,101968.78
2022-10-17T00:10:08.771Z,101971.78
2022-10-17T00:13:12.628Z,101975.31
2022-10-17T00:16:23.519Z,101978.75
2022-10-17T00:19:26.286Z,101974.47
2022-10-17T00:22:29.082Z,101973.34
2022-10-17T00:25:32.160Z,101973.16
2022-10-17T00:28:35.113Z,101981.44
2022-10-17T00:31:37.960Z,101977.31
2022-10-17T00:34:40.912Z,101976.47
2022-10-17T00:37:43.647Z,101981.94
2022-10-17T00:40:46.986Z,101986.28
2022-10-17T00:43:59.678Z,101986.13
2022-10-17T00:47:06.556Z,101985.28
2022-10-17T00:50:13.295Z,101990.19
2022-10-17T00:53:17.124Z,101992.03
2022-10-17T00:56:21.370Z,101994.16
2022-10-17T00:59:25.174Z,101993.53
2022-10-17T01:02:28.829Z,101997.88
2022-10-17T01:05:32.323Z,102000.19
2022-10-17T01:08:35.752Z,102006.81
2022-10-17T01:11:38.467Z,102003.00
2022-10-17T01:14:55.158Z,101998.84
2022-10-17T01:18:15.970Z,101991.75
2022-10-17T01:21:32.016Z,101988.59
2022-10-17T01:25:05.703Z,101986.28
2022-10-17T01:28:22.982Z,101979.50
2022-10-17T01:31:38.419Z,101981.59
2022-10-17T01:35:17.389Z,101979.47
2022-10-17T01:38:34.575Z,101979.97
2022-10-17T01:41:47.103Z,101978.66
2022-10-17T01:44:56.182Z,101981.13
2022-10-17T01:48:03.717Z,101970.00
2022-10-17T01:51:12.539Z,101977.47
2022-10-17T01:54:22.397Z,101974.19
2022-10-17T01:57:33.470Z,101978.66
2022-10-17T02:00:38.047Z,101983.78
2022-10-17T02:03:43.850Z,101974.66
2022-10-17T02:06:46.703Z,101986.63
2022-10-17T02:09:49.760Z,101979.31
2022-10-17T02:13:02.282Z,101994.72
2022-10-17T02:16:11.809Z,101986.78
2022-10-17T02:19:39.524Z,101989.94
2022-10-17T02:22:56.517Z,101988.13
2022-10-17T02:26:21.649Z,101993.47
2022-10-17T02:29:40.795Z,101993.66
2022-10-17T02:33:13.108Z,102002.59
2022-10-17T02:36:22.140Z,101996.66
2022-10-17T02:39:27.044Z,101999.28
2022-10-17T02:42:32.851Z,102002.09
2022-10-17T02:45:38.050Z,102006.09
2022-10-17T02:48:47.338Z,101995.81
2022-10-17T02:52:05.135Z,101997.50
2022-10-17T02:55:08.848Z,102004.13
2022-10-17T02:58:43.291Z,102000.31
2022-10-17T03:01:46.914Z,101995.22
2022-10-17T03:04:49.883Z,101998.84
2022-10-17T03:07:53.714Z,101997.03
2022-10-17T03:10:56.691Z,102006.78
2022-10-17T03:14:00.258Z,102004.97
2022-10-17T03:17:03.682Z,102012.75
2022-10-17T03:20:08.013Z,102008.13
2022-10-17T03:23:10.922Z,102013.22
2022-10-17T03:26:13.698Z,102019.22
2022-10-17T03:29:16.493Z,102017.25
2022-10-17T03:32:19.582Z,102013.41
2022-10-17T03:35:23.225Z,102022.53
2022-10-17T03:38:26.741Z,102018.56
2022-10-17T03:41:29.495Z,102019.88
2022-10-17T03:44:32.488Z,102017.88
2022-10-17T03:47:35.725Z,102028.00
2022-10-17T03:50:39.581Z,102016.41
2022-10-17T03:53:42.811Z,102019.69
2022-10-17T03:56:45.732Z,102025.34
2022-10-17T03:59:53.081Z,102016.72
2022-10-17T04:02:58.490Z,102025.16
2022-10-17T04:06:04.962Z,102038.38
2022-10-17T04:09:11.304Z,102033.25
2022-10-17T04:12:24.255Z,102049.28
2022-10-17T04:15:27.103Z,102039.34
2022-10-17T04:18:30.252Z,102044.31
2022-10-17T04:21:33.587Z,102049.63
2022-10-17T04:24:41.331Z,102046.31
2022-10-17T04:28:01.161Z,102044.34
2022-10-17T04:31:06.687Z,102042.38
2022-10-17T04:34:15.741Z,102052.44
2022-10-17T04:37:18.742Z,102048.31
2022-10-17T04:40:22.953Z,102048.50
2022-10-17T04:43:27.792Z,102054.78
2022-10-17T04:46:31.039Z,102059.06
2022-10-17T04:49:33.788Z,102071.59
2022-10-17T04:52:44.081Z,102066.81
2022-10-17T04:55:48.133Z,102064.31
2022-10-17T04:58:52.492Z,102069.25
2022-10-17T05:01:55.625Z,102073.19
2022-10-17T05:04:58.849Z,102076.53
2022-10-17T05:08:01.705Z,102076.53
2022-10-17T05:11:20.118Z,102083.16
2022-10-17T05:14:23.403Z,102084.31
2022-10-17T05:17:27.977Z,102089.47
2022-10-17T05:20:31.299Z,102087.97
2022-10-17T05:23:34.484Z,102093.91
2022-10-17T05:26:37.404Z,102096.88
2022-10-17T05:29:40.188Z,102097.22
2022-10-17T05:32:55.093Z,102097.56
2022-10-17T05:35:58.496Z,102108.97
2022-10-17T05:39:01.619Z,102104.19
2022-10-17T05:42:05.502Z,102104.72
2022-10-17T05:45:09.870Z,102106.72
2022-10-17T05:48:12.852Z,102111.88
2022-10-17T05:51:15.783Z,102118.16
2022-10-17T05:54:22.428Z,102123.84
2022-10-17T06:12:46.238Z,102135.94
2022-10-17T06:15:52.818Z,102167.41
2022-10-17T06:18:56.066Z,102164.44
2022-10-17T06:22:00.042Z,102168.59
2022-10-17T06:25:04.273Z,102178.38
2022-10-17T06:28:07.619Z,102174.91
2022-10-17T06:31:14.076Z,102190.31
2022-10-17T06:34:20.973Z,102186.66
2022-10-17T06:37:23.981Z,102190.13
2022-10-17T06:40:26.839Z,102189.16
2022-10-17T06:43:30.660Z,102194.31
2022-10-17T06:46:53.366Z,102199.28
2022-10-17T06:49:57.511Z,102196.06
2022-10-17T06:53:07.813Z,102193.53
2022-10-17T06:56:44.856Z,102210.69
2022-10-17T07:00:23.534Z,102216.28
2022-10-17T07:03:30.335Z,102218.28
2022-10-17T07:06:34.098Z,102209.75
2022-10-17T07:09:42.972Z,102217.84
2022-10-17T07:12:46.531Z,102217.38
2022-10-17T07:15:49.496Z,102221.19
2022-10-17T07:18:54.520Z,102219.78
2022-10-17T07:21:57.548Z,102219.50
2022-10-17T07:25:13.096Z,102220.22
2022-10-17T07:28:31.225Z,102230.81
2022-10-17T07:31:38.952Z,102237.47
2022-10-17T07:34:42.111Z,102232.66
2022-10-17T07:37:46.363Z,102234.88
2022-10-17T07:40:56.138Z,102244.50
2022-10-17T07:43:59.045Z,102236.72
2022-10-17T07:47:07.944Z,102242.22
2022-10-17T07:50:12.562Z,102243.22
2022-10-17T07:53:15.760Z,102240.97
2022-10-17T07:56:18.591Z,102248.06
2022-10-17T07:59:21.640Z,102237.84
2022-10-17T08:02:28.681Z,102226.59
2022-10-17T08:05:32.598Z,102229.56
2022-10-17T08:08:35.648Z,102229.56
2022-10-17T08:11:38.740Z,102234.53
2022-10-17T08:14:42.497Z,102229.75
2022-10-17T08:17:45.265Z,102232.44
2022-10-17T08:20:48.815Z,102230.06
2022-10-17T08:23:51.641Z,102237.22
2022-10-17T08:26:54.523Z,102226.47
2022-10-17T08:30:04.898Z,102232.53
2022-10-17T08:33:08.423Z,102232.28
2022-10-17T08:36:14.237Z,102243.78
2022-10-17T08:39:17.026Z,102244.75
2022-10-17T08:42:31.935Z,102243.03
2022-10-17T08:46:00.450Z,102243.44
2022-10-17T08:49:10.039Z,102232.78
2022-10-17T08:53:03.259Z,102227.50
2022-10-17T09:01:44.504Z,102240.31
2022-10-17T09:05:14.388Z,102232.34
2022-10-17T09:08:22.996Z,102236.38
2022-10-17T09:11:32.516Z,102224.84
2022-10-17T09:14:51.804Z,102225.88
2022-10-17T09:18:16.672Z,102225.16
2022-10-17T09:21:37.775Z,102227.66
2022-10-17T09:24:49.998Z,102228.34
2022-10-17T09:28:24.887Z,102237.97
2022-10-17T09:31:36.033Z,102242.13
2022-10-17T09:34:40.196Z,102232.78
2022-10-17T09:37:46.688Z,102231.81
2022-10-17T09:41:02.194Z,102234.50
2022-10-17T09:44:25.877Z,102238.00
2022-10-17T09:47:42.435Z,102236.53
2022-10-17T09:51:21.768Z,102232.44
2022-10-17T09:54:41.707Z,102224.22
2022-10-17T09:57:57.923Z,102233.69
2022-10-17T10:01:21.030Z,102236.97
2022-10-17T10:04:30.547Z,102225.94
2022-10-17T10:07:40.065Z,102224.31
2022-10-17T10:10:44.478Z,102224.34
2022-10-17T10:13:49.350Z,102223.97
2022-10-17T10:16:53.873Z,102225.00
2022-10-17T10:19:57.102Z,102218.22
2022-10-17T10:23:10.032Z,102220.22
2022-10-17T10:26:25.968Z,102222.88
2022-10-17T10:29:36.855Z,102215.19
2022-10-17T10:32:40.357Z,102210.72
2022-10-17T10:35:43.273Z,102212.28
2022-10-17T10:38:53.799Z,102202.22
2022-10-17T10:41:57.251Z,102205.00
2022-10-17T10:45:35.984Z,102204.16
2022-10-17T10:48:54.087Z,102200.03
2022-10-17T10:52:02.107Z,102198.53
2022-10-17T10:55:39.464Z,102184.50
2022-10-17T10:59:15.465Z,102193.25
2022-10-17T11:02:39.635Z,102186.66
2022-10-17T11:06:29.195Z,102188.59
2022-10-17T11:09:56.728Z,102176.13
2022-10-17T11:13:29.886Z,102183.63
2022-10-17T11:16:46.010Z,102182.75
2022-10-17T11:20:04.632Z,102182.75
2022-10-17T11:23:21.790Z,102169.88
2022-10-17T11:26:31.886Z,102177.34
2022-10-17T11:29:41.269Z,102176.94
2022-10-17T11:32:54.233Z,102162.94
2022-10-17T11:36:04.769Z,102163.31
2022-10-17T11:39:49.501Z,102163.13
2022-10-17T11:43:00.564Z,102160.38
2022-10-17T11:46:22.908Z,102165.78
2022-10-17T11:49:32.084Z,102154.97
2022-10-17T11:52:56.336Z,102148.78
2022-10-17T11:56:01.834Z,102146.88
2022-10-17T11:59:29.885Z,102142.41
2022-10-17T12:02:35.749Z,102142.66
2022-10-17T12:06:00.148Z,102138.31
2022-10-17T12:09:18.327Z,102136.09
2022-10-17T12:12:33.409Z,102143.13
2022-10-17T12:15:36.509Z,102137.88
2022-10-17T12:18:39.406Z,102137.47
2022-10-17T12:22:20.338Z,102131.19
2022-10-17T12:25:33.780Z,102122.09
2022-10-17T12:28:44.793Z,102137.31
2022-10-17T12:31:47.635Z,102132.28
2022-10-17T12:34:55.130Z,102128.72
2022-10-17T12:38:02.387Z,102123.38
2022-10-17T12:41:06.091Z,102115.72
2022-10-17T12:44:18.195Z,102125.88
2022-10-17T12:47:40.163Z,102119.69
2022-10-17T12:54:53.581Z,102108.34
2022-10-17T12:58:14.513Z,102102.63
2022-10-17T13:01:34.390Z,102110.09
2022-10-17T13:04:37.615Z,102110.69
2022-10-17T13:08:03.543Z,102108.19
2022-10-17T13:11:55.016Z,102096.38
2022-10-17T13:14:34.225Z,102101.34
2022-10-17T13:17:40.618Z,102103.03
2022-10-17T13:21:01.749Z,102102.63
2022-10-17T13:24:25.529Z,102098.34
2022-10-17T13:27:30.039Z,102098.78
2022-10-17T13:30:37.612Z,102093.09
2022-10-17T13:33:42.407Z,102088.66
2022-10-17T13:36:53.694Z,102079.63
2022-10-17T13:40:00.297Z,102078.56
2022-10-17T13:43:18.845Z,102085.22
2022-10-17T13:46:39.527Z,102089.00
2022-10-17T13:49:44.614Z,102086.97
2022-10-17T13:52:47.414Z,102083.72
2022-10-17T13:56:09.771Z,102082.88
2022-10-17T13:59:26.165Z,102085.72
2022-10-17T14:02:31.469Z,102086.25
2022-10-17T14:05:34.530Z,102088.81
2022-10-17T14:08:46.174Z,102086.19
2022-10-17T14:12:01.167Z,102082.47
2022-10-17T14:15:11.893Z,102078.84
2022-10-17T14:18:21.369Z,102081.84
2022-10-17T14:21:43.805Z,102094.53
2022-10-17T14:24:48.804Z,102087.28
2022-10-17T14:28:08.126Z,102086.59
2022-10-17T14:31:34.221Z,102083.06
2022-10-17T14:34:40.653Z,102076.63
2022-10-17T14:37:51.918Z,102071.81
2022-10-17T14:41:41.926Z,102088.75
2022-10-17T14:44:52.930Z,102081.88
2022-10-17T14:48:00.772Z,102090.56
2022-10-17T14:51:16.607Z,102095.69
2022-10-17T14:54:26.731Z,102091.97
2022-10-17T14:57:44.236Z,102091.31
2022-10-17T15:00:47.639Z,102090.91
2022-10-17T15:03:50.523Z,102093.88
2022-10-17T15:06:56.469Z,102098.50
2022-10-17T15:09:59.167Z,102089.75
2022-10-17T15:13:27.139Z,102089.06
2022-10-17T15:16:31.028Z,102088.88
2022-10-17T15:19:33.927Z,102096.03
2022-10-17T15:22:36.734Z,102082.09
2022-10-17T15:25:40.218Z,102088.09
2022-10-17T15:28:43.415Z,102094.66
2022-10-17T15:31:46.573Z,102092.66
2022-10-17T15:34:49.515Z,102093.53
2022-10-17T15:37:52.458Z,102098.63
2022-10-17T15:40:55.591Z,102099.53
2022-10-17T15:43:58.838Z,102102.03
2022-10-17T15:47:01.949Z,102100.50
2022-10-17T15:50:07.047Z,102102.31
2022-10-17T15:53:13.182Z,102106.91
2022-10-17T15:56:20.194Z,102109.78
2022-10-17T15:59:32.499Z,102104.47
2022-10-17T16:02:35.306Z,102115.56
2022-10-17T16:05:38.075Z,102123.97
2022-10-17T16:08:40.890Z,102126.16
2022-10-17T16:11:45.426Z,102131.00
2022-10-17T16:14:48.122Z,102126.75
2022-10-17T16:17:52.504Z,102129.03
2022-10-17T16:20:55.916Z,102131.59
2022-10-17T16:23:59.273Z,102137.19
2022-10-17T16:27:03.229Z,102141.34
2022-10-17T16:30:08.032Z,102141.53
2022-10-17T16:33:15.388Z,102135.53
2022-10-17T16:36:19.101Z,102145.91
2022-10-17T16:39:22.074Z,102148.97
2022-10-17T16:42:25.080Z,102146.72
2022-10-17T16:45:28.148Z,102147.78
2022-10-17T16:48:31.149Z,102158.09
2022-10-17T16:51:35.997Z,102162.81
2022-10-17T16:54:39.520Z,102159.13
2022-10-17T17:00:48.577Z,102153.13
2022-10-17T17:03:53.429Z,102150.44
2022-10-17T17:07:02.523Z,102148.41
2022-10-17T17:10:06.787Z,102136.03
2022-10-17T17:13:10.064Z,102161.59
2022-10-17T17:16:16.453Z,102151.69
2022-10-17T17:19:20.501Z,102155.19
2022-10-17T17:22:23.482Z,102161.06
2022-10-17T17:25:26.651Z,102175.00
2022-10-17T17:28:30.864Z,102167.09
2022-10-17T17:31:35.500Z,102176.53
2022-10-17T17:34:41.607Z,102174.41
2022-10-17T17:37:44.501Z,102166.13
2022-10-17T17:40:50.659Z,102181.06
2022-10-17T17:43:56.207Z,102178.16
2022-10-17T17:46:59.065Z,102172.78
2022-10-17T17:50:03.365Z,102176.13
2022-10-17T17:53:07.093Z,102177.81
2022-10-17T17:56:16.512Z,102183.34
2022-10-17T17:59:19.400Z,102183.50
2022-10-17T18:02:22.233Z,102184.28
2022-10-17T18:05:24.966Z,102177.50
2022-10-17T18:08:27.728Z,102177.28
2022-10-17T18:11:30.473Z,102171.84
2022-10-17T18:14:33.218Z,102176.31
2022-10-17T18:17:36.105Z,102180.53
2022-10-17T18:20:42.853Z,102172.88
2022-10-17T18:23:48.591Z,102175.56
2022-10-17T18:26:54.057Z,102175.47
2022-10-17T18:29:57.146Z,102181.81
2022-10-17T18:32:59.901Z,102182.78
2022-10-17T18:36:07.164Z,102180.03
2022-10-17T18:39:10.452Z,102172.03
2022-10-17T18:42:13.430Z,102175.97
2022-10-17T18:45:17.511Z,102168.06
2022-10-17T18:48:20.320Z,102174.31
2022-10-17T18:51:25.327Z,102175.25
2022-10-17T18:54:29.407Z,102179.53
2022-10-17T18:57:32.549Z,102178.88
2022-10-17T19:00:36.970Z,102190.69
2022-10-17T19:03:39.702Z,102173.97
2022-10-17T19:06:44.643Z,102181.78
2022-10-17T19:09:48.756Z,102183.75
2022-10-17T19:12:51.525Z,102176.47
2022-10-17T19:15:54.312Z,102181.59
2022-10-17T19:19:06.108Z,102181.78
2022-10-17T19:22:09.658Z,102184.25
2022-10-17T19:25:12.718Z,102179.47
2022-10-17T19:28:15.547Z,102182.63
2022-10-17T19:31:24.085Z,102184.38
2022-10-17T19:34:29.610Z,102190.19
2022-10-17T19:37:32.939Z,102193.50
2022-10-17T19:40:41.086Z,102196.97
2022-10-17T19:43:44.188Z,102186.78
2022-10-17T19:46:49.246Z,102188.16
2022-10-17T19:49:52.269Z,102191.34
2022-10-17T19:52:55.038Z,102198.31
2022-10-17T19:55:58.390Z,102199.22
2022-10-17T19:59:01.492Z,102203.31
2022-10-17T20:02:04.658Z,102202.53
2022-10-17T20:05:21.612Z,102201.38
2022-10-17T20:11:34.644Z,102204.25
2022-10-17T20:14:40.817Z,102197.78
2022-10-17T20:17:43.936Z,102195.13
2022-10-17T20:20:46.803Z,102193.16
2022-10-17T20:23:51.041Z,102194.50
2022-10-17T20:26:53.823Z,102195.06
2022-10-17T20:30:01.829Z,102195.22
2022-10-17T20:33:04.964Z,102198.44
2022-10-17T20:36:09.899Z,102192.00
2022-10-17T20:39:14.401Z,102196.97
2022-10-17T20:42:17.223Z,102200.53
2022-10-17T20:45:32.024Z,102194.75
2022-10-17T20:48:42.887Z,102197.56
2022-10-17T20:51:46.369Z,102204.25
2022-10-17T20:54:49.881Z,102201.28
2022-10-17T20:57:56.000Z,102193.03
2022-10-17T21:00:58.782Z,102197.81
2022-10-17T21:04:21.283Z,102200.81
2022-10-17T21:07:25.418Z,102190.03
2022-10-17T21:10:35.452Z,102194.84
2022-10-17T21:13:38.978Z,102190.88
2022-10-17T21:16:41.938Z,102192.69
2022-10-17T21:19:44.582Z,102189.25
2022-10-17T21:22:47.335Z,102199.31
2022-10-17T21:25:50.063Z,102194.72
2022-10-17T21:28:53.103Z,102199.22
2022-10-17T21:31:56.367Z,102199.41
2022-10-17T21:34:59.118Z,102190.78
2022-10-17T21:38:01.845Z,102197.13
2022-10-17T21:41:06.715Z,102196.44
2022-10-17T21:44:18.245Z,102196.63
2022-10-17T21:47:23.262Z,102183.50
2022-10-17T21:50:29.714Z,102181.00
2022-10-17T21:53:32.926Z,102176.38
2022-10-17T21:56:36.503Z,102174.38
2022-10-17T21:59:40.044Z,102170.88
2022-10-17T22:02:42.819Z,102162.94
2022-10-17T22:05:45.638Z,102170.41
2022-10-17T22:08:48.670Z,102167.78
2022-10-17T22:11:54.794Z,102162.78
2022-10-17T22:14:57.484Z,102161.47
2022-10-17T22:18:00.256Z,102152.88
2022-10-17T22:21:03.760Z,102153.50
2022-10-17T22:24:08.686Z,102157.97
2022-10-17T22:27:11.506Z,102153.84
2022-10-17T22:30:14.294Z,102149.97
2022-10-17T22:33:17.568Z,102145.63
2022-10-17T22:36:20.678Z,102143.34
2022-10-17T22:39:23.380Z,102148.34
2022-10-17T22:42:26.188Z,102149.03
2022-10-17T22:45:28.980Z,102141.41
2022-10-17T22:48:31.988Z,102135.28
2022-10-17T22:51:34.848Z,102132.63
2022-10-17T22:54:37.560Z,102133.13
2022-10-17T22:57:41.021Z,102127.81
2022-10-17T23:00:44.026Z,102129.81
2022-10-17T23:03:47.064Z,102129.63
2022-10-17T23:06:49.850Z,102125.19
2022-10-17T23:09:53.066Z,102127.50
2022-10-17T23:12:55.911Z,102118.72
2022-10-17T23:15:58.924Z,102126.69
2022-10-17T23:19:01.877Z,102127.84
2022-10-17T23:22:06.206Z,102131.81
2022-10-17T23:25:09.235Z,102118.38
2022-10-17T23:28:12.404Z,102123.34
2022-10-17T23:31:20.867Z,102118.03
2022-10-17T23:34:23.602Z,102114.72
2022-10-17T23:37:26.320Z,102116.19
2022-10-17T23:40:29.439Z,102120.50
2022-10-17T23:43:34.534Z,102114.53
2022-10-17T23:46:37.506Z,102121.16
2022-10-17T23:49:40.290Z,102119.66
2022-10-17T23:52:43.211Z,102120.81
2022-10-17T23:55:45.998Z,102117.97
2022-10-17T23:58:49.016Z,102113.00
